Neptune, Iowa
Current Conditions -  °F | °C
As of 4:15 PM on Friday 24 Oct 2014 (Local Time) from KLRJ Reporting Station
Clear Clear  
Wind Chill: 77°   Ceiling: Unl
Heat Index: 78°   Visibility: 10mi
Dew Point: 45°   Wind: 7mph
Humidity: 32%   Direction: 300°WNW
Pressure: 29.89"   Gusts: NA
Location:  42.6065°N, 96.2694°W
Report Text: KLRJ 242115Z AUTO 30006KT 10SM CLR 25/07 A2989 RMK AO2
Loading
Personal Weather Stations






























Interactive Weather Map
Tropical Storm Tracking
New forecast layout! Learn more

10-Day Weather Forecast

Advertisements
Track Severe Weather on mobile